sensor_id;sensor_type;location;lat;lon;timestamp;P1;durP1;ratioP1;P2;durP2;ratioP2
41705;SDS011;27385;51.096;17.190;2022-11-24T00:01:29;77.60;;;31.60;;
41705;SDS011;27385;51.096;17.190;2022-11-24T00:04:02;81.60;;;32.70;;
41705;SDS011;27385;51.096;17.190;2022-11-24T00:06:34;73.80;;;31.50;;
41705;SDS011;27385;51.096;17.190;2022-11-24T00:09:06;84.50;;;33.80;;
41705;SDS011;27385;51.096;17.190;2022-11-24T00:11:38;76.80;;;31.80;;
41705;SDS011;27385;51.096;17.190;2022-11-24T00:14:10;80.80;;;32.70;;
41705;SDS011;27385;51.096;17.190;2022-11-24T00:16:42;70.30;;;31.50;;
41705;SDS011;27385;51.096;17.190;2022-11-24T00:19:13;72.60;;;29.70;;
41705;SDS011;27385;51.096;17.190;2022-11-24T00:21:46;72.60;;;32.30;;
41705;SDS011;27385;51.096;17.190;2022-11-24T00:24:18;74.30;;;31.10;;
41705;SDS011;27385;51.096;17.190;2022-11-24T00:26:50;78.00;;;30.10;;
41705;SDS011;27385;51.096;17.190;2022-11-24T00:29:23;68.00;;;28.00;;
41705;SDS011;27385;51.096;17.190;2022-11-24T00:31:55;62.30;;;28.50;;
41705;SDS011;27385;51.096;17.190;2022-11-24T00:34:29;65.90;;;28.10;;
41705;SDS011;27385;51.096;17.190;2022-11-24T00:37:02;73.30;;;29.40;;
41705;SDS011;27385;51.096;17.190;2022-11-24T00:39:34;73.50;;;27.20;;
41705;SDS011;27385;51.096;17.190;2022-11-24T00:42:05;68.70;;;27.20;;
41705;SDS011;27385;51.096;17.190;2022-11-24T00:44:37;59.90;;;25.90;;
41705;SDS011;27385;51.096;17.190;2022-11-24T00:47:10;68.60;;;28.90;;
41705;SDS011;27385;51.096;17.190;2022-11-24T00:49:41;62.10;;;26.40;;
41705;SDS011;27385;51.096;17.190;2022-11-24T00:52:12;61.00;;;25.80;;
41705;SDS011;27385;51.096;17.190;2022-11-24T00:54:44;62.10;;;26.50;;
41705;SDS011;27385;51.096;17.190;2022-11-24T00:57:15;61.50;;;26.00;;
41705;SDS011;27385;51.096;17.190;2022-11-24T00:59:47;71.30;;;29.20;;
41705;SDS011;27385;51.096;17.190;2022-11-24T01:02:18;68.50;;;28.80;;
41705;SDS011;27385;51.096;17.190;2022-11-24T01:04:50;65.20;;;27.30;;
41705;SDS011;27385;51.096;17.190;2022-11-24T01:07:22;69.70;;;29.20;;
41705;SDS011;27385;51.096;17.190;2022-11-24T01:09:54;75.30;;;32.50;;
41705;SDS011;27385;51.096;17.190;2022-11-24T01:12:25;67.90;;;29.90;;
41705;SDS011;27385;51.096;17.190;2022-11-24T01:14:58;78.50;;;33.90;;
41705;SDS011;27385;51.096;17.190;2022-11-24T01:17:29;69.50;;;29.40;;
41705;SDS011;27385;51.096;17.190;2022-11-24T01:20:01;73.40;;;30.80;;
41705;SDS011;27385;51.096;17.190;2022-11-24T01:22:33;70.40;;;31.10;;
41705;SDS011;27385;51.096;17.190;2022-11-24T01:25:06;77.80;;;30.20;;
41705;SDS011;27385;51.096;17.190;2022-11-24T01:27:40;74.20;;;31.80;;
41705;SDS011;27385;51.096;17.190;2022-11-24T01:30:12;72.40;;;32.20;;
41705;SDS011;27385;51.096;17.190;2022-11-24T01:32:44;78.50;;;34.00;;
41705;SDS011;27385;51.096;17.190;2022-11-24T01:35:17;84.20;;;34.40;;
41705;SDS011;27385;51.096;17.190;2022-11-24T01:37:48;76.60;;;33.10;;
41705;SDS011;27385;51.096;17.190;2022-11-24T01:40:20;80.60;;;33.80;;
41705;SDS011;27385;51.096;17.190;2022-11-24T01:42:52;85.70;;;35.50;;
41705;SDS011;27385;51.096;17.190;2022-11-24T01:45:27;80.00;;;34.60;;
41705;SDS011;27385;51.096;17.190;2022-11-24T01:48:03;81.50;;;34.20;;
41705;SDS011;27385;51.096;17.190;2022-11-24T01:51:09;84.00;;;32.00;;
41705;SDS011;27385;51.096;17.190;2022-11-24T01:53:45;86.00;;;33.50;;
41705;SDS011;27385;51.096;17.190;2022-11-24T01:56:20;74.00;;;30.00;;
41705;SDS011;27385;51.096;17.190;2022-11-24T01:58:52;76.60;;;32.10;;
41705;SDS011;27385;51.096;17.190;2022-11-24T02:01:26;76.60;;;30.60;;
41705;SDS011;27385;51.096;17.190;2022-11-24T02:04:00;80.40;;;31.00;;
41705;SDS011;27385;51.096;17.190;2022-11-24T02:06:37;76.80;;;31.20;;
41705;SDS011;27385;51.096;17.190;2022-11-24T02:09:12;76.80;;;30.40;;
41705;SDS011;27385;51.096;17.190;2022-11-24T02:11:49;72.90;;;31.30;;
41705;SDS011;27385;51.096;17.190;2022-11-24T02:14:23;78.70;;;32.70;;
41705;SDS011;27385;51.096;17.190;2022-11-24T02:16:56;88.20;;;35.00;;
41705;SDS011;27385;51.096;17.190;2022-11-24T02:19:31;80.20;;;34.50;;
41705;SDS011;27385;51.096;17.190;2022-11-24T02:22:12;88.30;;;36.70;;
41705;SDS011;27385;51.096;17.190;2022-11-24T02:24:47;88.70;;;34.80;;
41705;SDS011;27385;51.096;17.190;2022-11-24T02:27:24;95.30;;;37.80;;
41705;SDS011;27385;51.096;17.190;2022-11-24T02:29:56;95.60;;;37.60;;
41705;SDS011;27385;51.096;17.190;2022-11-24T02:32:29;92.10;;;39.30;;
41705;SDS011;27385;51.096;17.190;2022-11-24T02:35:02;96.90;;;38.90;;
41705;SDS011;27385;51.096;17.190;2022-11-24T02:37:35;98.40;;;39.20;;
41705;SDS011;27385;51.096;17.190;2022-11-24T02:40:08;93.50;;;38.60;;
41705;SDS011;27385;51.096;17.190;2022-11-24T02:42:43;90.10;;;40.50;;
41705;SDS011;27385;51.096;17.190;2022-11-24T02:45:16;96.00;;;39.40;;
41705;SDS011;27385;51.096;17.190;2022-11-24T02:47:48;98.10;;;39.20;;
41705;SDS011;27385;51.096;17.190;2022-11-24T02:50:20;87.00;;;36.20;;
41705;SDS011;27385;51.096;17.190;2022-11-24T02:52:52;84.00;;;36.90;;
41705;SDS011;27385;51.096;17.190;2022-11-24T02:55:23;89.60;;;37.20;;
41705;SDS011;27385;51.096;17.190;2022-11-24T02:57:55;94.90;;;39.60;;
41705;SDS011;27385;51.096;17.190;2022-11-24T03:00:26;96.00;;;40.00;;
41705;SDS011;27385;51.096;17.190;2022-11-24T03:02:58;93.30;;;38.40;;
41705;SDS011;27385;51.096;17.190;2022-11-24T03:05:30;91.60;;;39.30;;
41705;SDS011;27385;51.096;17.190;2022-11-24T03:08:01;88.20;;;37.50;;
41705;SDS011;27385;51.096;17.190;2022-11-24T03:10:33;85.00;;;35.80;;
41705;SDS011;27385;51.096;17.190;2022-11-24T03:13:06;88.90;;;39.40;;
41705;SDS011;27385;51.096;17.190;2022-11-24T03:15:38;92.50;;;38.90;;
41705;SDS011;27385;51.096;17.190;2022-11-24T03:18:09;86.20;;;36.00;;
41705;SDS011;27385;51.096;17.190;2022-11-24T03:20:41;87.20;;;37.90;;
41705;SDS011;27385;51.096;17.190;2022-11-24T03:23:12;87.50;;;36.90;;
41705;SDS011;27385;51.096;17.190;2022-11-24T03:25:45;89.90;;;39.30;;
41705;SDS011;27385;51.096;17.190;2022-11-24T03:28:18;82.40;;;34.90;;
41705;SDS011;27385;51.096;17.190;2022-11-24T03:30:49;87.10;;;37.70;;
41705;SDS011;27385;51.096;17.190;2022-11-24T03:33:23;76.40;;;34.90;;
41705;SDS011;27385;51.096;17.190;2022-11-24T03:35:55;87.00;;;36.80;;
41705;SDS011;27385;51.096;17.190;2022-11-24T03:38:26;82.90;;;36.60;;
41705;SDS011;27385;51.096;17.190;2022-11-24T03:40:58;79.00;;;33.90;;
41705;SDS011;27385;51.096;17.190;2022-11-24T03:43:30;85.10;;;34.70;;
41705;SDS011;27385;51.096;17.190;2022-11-24T03:46:01;68.30;;;30.50;;
41705;SDS011;27385;51.096;17.190;2022-11-24T03:48:42;80.80;;;32.80;;
41705;SDS011;27385;51.096;17.190;2022-11-24T03:53:44;68.40;;;30.80;;
41705;SDS011;27385;51.096;17.190;2022-11-24T03:56:16;75.80;;;32.70;;
41705;SDS011;27385;51.096;17.190;2022-11-24T03:58:48;82.50;;;34.90;;
41705;SDS011;27385;51.096;17.190;2022-11-24T04:01:20;73.90;;;31.30;;
41705;SDS011;27385;51.096;17.190;2022-11-24T04:03:51;82.30;;;33.00;;
41705;SDS011;27385;51.096;17.190;2022-11-24T04:06:23;81.80;;;33.50;;
41705;SDS011;27385;51.096;17.190;2022-11-24T04:08:56;75.20;;;31.60;;
41705;SDS011;27385;51.096;17.190;2022-11-24T04:11:28;75.30;;;34.60;;
41705;SDS011;27385;51.096;17.190;2022-11-24T04:14:17;76.60;;;30.90;;
41705;SDS011;27385;51.096;17.190;2022-11-24T04:16:48;71.30;;;30.80;;
41705;SDS011;27385;51.096;17.190;2022-11-24T04:19:21;70.60;;;29.80;;
41705;SDS011;27385;51.096;17.190;2022-11-24T04:21:53;77.30;;;32.80;;
41705;SDS011;27385;51.096;17.190;2022-11-24T04:24:24;73.40;;;31.60;;
41705;SDS011;27385;51.096;17.190;2022-11-24T04:26:56;69.90;;;31.30;;
41705;SDS011;27385;51.096;17.190;2022-11-24T04:29:27;69.00;;;30.80;;
41705;SDS011;27385;51.096;17.190;2022-11-24T04:31:58;71.30;;;32.00;;
41705;SDS011;27385;51.096;17.190;2022-11-24T04:34:30;76.90;;;32.70;;
41705;SDS011;27385;51.096;17.190;2022-11-24T04:37:02;80.90;;;32.30;;
41705;SDS011;27385;51.096;17.190;2022-11-24T04:39:34;81.90;;;34.20;;
41705;SDS011;27385;51.096;17.190;2022-11-24T04:42:06;85.30;;;34.90;;
41705;SDS011;27385;51.096;17.190;2022-11-24T04:44:38;82.40;;;34.10;;
41705;SDS011;27385;51.096;17.190;2022-11-24T04:47:12;85.70;;;35.60;;
41705;SDS011;27385;51.096;17.190;2022-11-24T04:49:47;90.10;;;39.40;;
41705;SDS011;27385;51.096;17.190;2022-11-24T04:52:20;88.40;;;40.30;;
41705;SDS011;27385;51.096;17.190;2022-11-24T04:54:52;95.80;;;44.50;;
41705;SDS011;27385;51.096;17.190;2022-11-24T04:57:24;102.30;;;45.40;;
41705;SDS011;27385;51.096;17.190;2022-11-24T04:59:56;94.00;;;44.80;;
41705;SDS011;27385;51.096;17.190;2022-11-24T05:02:27;94.50;;;44.10;;
41705;SDS011;27385;51.096;17.190;2022-11-24T05:04:59;99.50;;;45.90;;
41705;SDS011;27385;51.096;17.190;2022-11-24T05:07:30;109.50;;;44.00;;
41705;SDS011;27385;51.096;17.190;2022-11-24T05:10:03;94.80;;;43.90;;
41705;SDS011;27385;51.096;17.190;2022-11-24T05:13:05;97.20;;;43.10;;
41705;SDS011;27385;51.096;17.190;2022-11-24T05:15:40;97.80;;;42.90;;
41705;SDS011;27385;51.096;17.190;2022-11-24T05:18:12;102.30;;;44.80;;
41705;SDS011;27385;51.096;17.190;2022-11-24T05:20:44;103.10;;;43.80;;
41705;SDS011;27385;51.096;17.190;2022-11-24T05:23:17;97.30;;;39.20;;
41705;SDS011;27385;51.096;17.190;2022-11-24T05:25:48;97.30;;;43.60;;
41705;SDS011;27385;51.096;17.190;2022-11-24T05:28:20;92.10;;;40.50;;
41705;SDS011;27385;51.096;17.190;2022-11-24T05:30:51;85.20;;;37.80;;
41705;SDS011;27385;51.096;17.190;2022-11-24T05:33:26;90.90;;;38.10;;
41705;SDS011;27385;51.096;17.190;2022-11-24T05:36:00;84.50;;;35.60;;
41705;SDS011;27385;51.096;17.190;2022-11-24T05:38:34;89.60;;;38.90;;
41705;SDS011;27385;51.096;17.190;2022-11-24T05:41:06;87.40;;;38.10;;
41705;SDS011;27385;51.096;17.190;2022-11-24T05:43:37;86.30;;;36.30;;
41705;SDS011;27385;51.096;17.190;2022-11-24T05:46:09;90.50;;;37.70;;
41705;SDS011;27385;51.096;17.190;2022-11-24T05:48:41;81.10;;;37.40;;
41705;SDS011;27385;51.096;17.190;2022-11-24T05:51:13;78.00;;;35.40;;
41705;SDS011;27385;51.096;17.190;2022-11-24T05:53:45;81.90;;;36.80;;
41705;SDS011;27385;51.096;17.190;2022-11-24T05:56:16;83.50;;;36.40;;
41705;SDS011;27385;51.096;17.190;2022-11-24T05:58:48;88.60;;;40.10;;
41705;SDS011;27385;51.096;17.190;2022-11-24T06:01:19;82.80;;;38.40;;
41705;SDS011;27385;51.096;17.190;2022-11-24T06:03:51;85.50;;;36.40;;
41705;SDS011;27385;51.096;17.190;2022-11-24T06:06:23;84.00;;;38.00;;
41705;SDS011;27385;51.096;17.190;2022-11-24T06:08:54;81.20;;;35.10;;
41705;SDS011;27385;51.096;17.190;2022-11-24T06:11:26;77.50;;;34.80;;
41705;SDS011;27385;51.096;17.190;2022-11-24T06:13:57;77.50;;;34.50;;
41705;SDS011;27385;51.096;17.190;2022-11-24T06:16:29;83.10;;;37.30;;
41705;SDS011;27385;51.096;17.190;2022-11-24T06:19:00;90.70;;;39.90;;
41705;SDS011;27385;51.096;17.190;2022-11-24T06:21:31;93.10;;;39.70;;
41705;SDS011;27385;51.096;17.190;2022-11-24T06:24:03;88.70;;;39.60;;
41705;SDS011;27385;51.096;17.190;2022-11-24T06:26:35;95.10;;;37.90;;
41705;SDS011;27385;51.096;17.190;2022-11-24T06:29:07;92.20;;;39.80;;
41705;SDS011;27385;51.096;17.190;2022-11-24T06:31:39;96.40;;;40.30;;
41705;SDS011;27385;51.096;17.190;2022-11-24T06:34:11;93.80;;;42.90;;
41705;SDS011;27385;51.096;17.190;2022-11-24T06:36:43;107.80;;;47.00;;
41705;SDS011;27385;51.096;17.190;2022-11-24T06:39:15;100.10;;;42.20;;
41705;SDS011;27385;51.096;17.190;2022-11-24T06:41:47;95.50;;;43.30;;
41705;SDS011;27385;51.096;17.190;2022-11-24T06:44:21;105.70;;;44.80;;
41705;SDS011;27385;51.096;17.190;2022-11-24T06:46:53;91.10;;;42.70;;
41705;SDS011;27385;51.096;17.190;2022-11-24T06:49:25;90.50;;;42.30;;
41705;SDS011;27385;51.096;17.190;2022-11-24T06:51:56;93.60;;;42.30;;
41705;SDS011;27385;51.096;17.190;2022-11-24T06:54:28;97.40;;;41.10;;
41705;SDS011;27385;51.096;17.190;2022-11-24T06:57:00;96.00;;;42.30;;
41705;SDS011;27385;51.096;17.190;2022-11-24T06:59:31;95.50;;;42.70;;
41705;SDS011;27385;51.096;17.190;2022-11-24T07:02:03;89.50;;;39.50;;
41705;SDS011;27385;51.096;17.190;2022-11-24T07:04:34;93.20;;;38.40;;
41705;SDS011;27385;51.096;17.190;2022-11-24T07:07:06;87.00;;;37.10;;
41705;SDS011;27385;51.096;17.190;2022-11-24T07:09:37;87.90;;;38.00;;
41705;SDS011;27385;51.096;17.190;2022-11-24T07:12:09;88.20;;;38.00;;
41705;SDS011;27385;51.096;17.190;2022-11-24T07:14:41;104.70;;;42.50;;
41705;SDS011;27385;51.096;17.190;2022-11-24T07:17:14;98.00;;;42.70;;
41705;SDS011;27385;51.096;17.190;2022-11-24T07:19:45;100.80;;;42.90;;
41705;SDS011;27385;51.096;17.190;2022-11-24T07:22:16;109.10;;;46.70;;
41705;SDS011;27385;51.096;17.190;2022-11-24T07:24:48;109.20;;;44.30;;
41705;SDS011;27385;51.096;17.190;2022-11-24T07:27:20;104.50;;;42.50;;
41705;SDS011;27385;51.096;17.190;2022-11-24T07:29:52;105.30;;;40.80;;
41705;SDS011;27385;51.096;17.190;2022-11-24T07:32:24;98.40;;;41.80;;
41705;SDS011;27385;51.096;17.190;2022-11-24T07:34:57;92.60;;;39.40;;
41705;SDS011;27385;51.096;17.190;2022-11-24T07:37:28;112.00;;;44.60;;
41705;SDS011;27385;51.096;17.190;2022-11-24T07:40:00;113.20;;;48.00;;
41705;SDS011;27385;51.096;17.190;2022-11-24T07:42:32;136.90;;;59.80;;
41705;SDS011;27385;51.096;17.190;2022-11-24T07:45:05;142.10;;;58.40;;
41705;SDS011;27385;51.096;17.190;2022-11-24T07:47:39;132.00;;;56.60;;
41705;SDS011;27385;51.096;17.190;2022-11-24T07:50:11;133.90;;;53.20;;
41705;SDS011;27385;51.096;17.190;2022-11-24T07:52:42;131.70;;;50.80;;
41705;SDS011;27385;51.096;17.190;2022-11-24T07:55:14;129.10;;;50.40;;
41705;SDS011;27385;51.096;17.190;2022-11-24T07:57:45;130.20;;;48.00;;
41705;SDS011;27385;51.096;17.190;2022-11-24T08:00:18;153.70;;;56.50;;
41705;SDS011;27385;51.096;17.190;2022-11-24T08:02:50;146.60;;;59.10;;
41705;SDS011;27385;51.096;17.190;2022-11-24T08:05:21;143.90;;;53.90;;
41705;SDS011;27385;51.096;17.190;2022-11-24T08:07:53;132.90;;;50.80;;
41705;SDS011;27385;51.096;17.190;2022-11-24T08:10:27;131.40;;;50.40;;
41705;SDS011;27385;51.096;17.190;2022-11-24T08:13:00;138.60;;;52.50;;
41705;SDS011;27385;51.096;17.190;2022-11-24T08:15:31;144.20;;;53.10;;
41705;SDS011;27385;51.096;17.190;2022-11-24T08:18:03;146.10;;;54.70;;
41705;SDS011;27385;51.096;17.190;2022-11-24T08:20:35;142.00;;;53.70;;
41705;SDS011;27385;51.096;17.190;2022-11-24T08:23:07;143.40;;;56.20;;
41705;SDS011;27385;51.096;17.190;2022-11-24T08:25:40;147.30;;;57.90;;
41705;SDS011;27385;51.096;17.190;2022-11-24T08:28:14;146.60;;;54.70;;
41705;SDS011;27385;51.096;17.190;2022-11-24T08:30:45;153.80;;;60.10;;
41705;SDS011;27385;51.096;17.190;2022-11-24T08:33:16;149.50;;;55.30;;
41705;SDS011;27385;51.096;17.190;2022-11-24T08:35:48;143.30;;;55.30;;
41705;SDS011;27385;51.096;17.190;2022-11-24T08:38:20;147.10;;;51.60;;
41705;SDS011;27385;51.096;17.190;2022-11-24T08:40:51;140.10;;;51.80;;
41705;SDS011;27385;51.096;17.190;2022-11-24T08:43:23;121.70;;;49.20;;
41705;SDS011;27385;51.096;17.190;2022-11-24T08:45:57;122.10;;;47.40;;
41705;SDS011;27385;51.096;17.190;2022-11-24T08:48:30;124.40;;;49.40;;
41705;SDS011;27385;51.096;17.190;2022-11-24T08:51:06;124.70;;;47.50;;
41705;SDS011;27385;51.096;17.190;2022-11-24T08:53:40;131.00;;;48.60;;
41705;SDS011;27385;51.096;17.190;2022-11-24T08:56:12;115.90;;;46.20;;
41705;SDS011;27385;51.096;17.190;2022-11-24T08:58:44;135.20;;;48.60;;
41705;SDS011;27385;51.096;17.190;2022-11-24T09:01:16;125.70;;;48.20;;
41705;SDS011;27385;51.096;17.190;2022-11-24T09:03:48;133.00;;;48.40;;
41705;SDS011;27385;51.096;17.190;2022-11-24T09:06:21;121.60;;;46.70;;
41705;SDS011;27385;51.096;17.190;2022-11-24T09:08:53;126.10;;;48.50;;
41705;SDS011;27385;51.096;17.190;2022-11-24T09:11:26;126.60;;;44.60;;
41705;SDS011;27385;51.096;17.190;2022-11-24T09:13:57;101.10;;;36.10;;
41705;SDS011;27385;51.096;17.190;2022-11-24T09:16:29;120.40;;;38.20;;
41705;SDS011;27385;51.096;17.190;2022-11-24T09:19:01;113.10;;;41.70;;
41705;SDS011;27385;51.096;17.190;2022-11-24T09:21:35;111.50;;;37.90;;
41705;SDS011;27385;51.096;17.190;2022-11-24T09:24:08;114.60;;;37.00;;
41705;SDS011;27385;51.096;17.190;2022-11-24T09:26:40;94.80;;;34.60;;
41705;SDS011;27385;51.096;17.190;2022-11-24T09:29:12;106.40;;;38.50;;
41705;SDS011;27385;51.096;17.190;2022-11-24T09:31:44;106.70;;;37.80;;
41705;SDS011;27385;51.096;17.190;2022-11-24T09:34:15;108.20;;;38.00;;
41705;SDS011;27385;51.096;17.190;2022-11-24T09:36:47;95.60;;;35.40;;
41705;SDS011;27385;51.096;17.190;2022-11-24T09:39:19;104.30;;;37.60;;
41705;SDS011;27385;51.096;17.190;2022-11-24T09:41:59;100.20;;;37.50;;
41705;SDS011;27385;51.096;17.190;2022-11-24T09:44:47;92.50;;;33.80;;
41705;SDS011;27385;51.096;17.190;2022-11-24T09:47:38;94.30;;;35.20;;
41705;SDS011;27385;51.096;17.190;2022-11-24T09:50:19;90.80;;;32.50;;
41705;SDS011;27385;51.096;17.190;2022-11-24T09:52:52;94.00;;;34.60;;
41705;SDS011;27385;51.096;17.190;2022-11-24T09:55:30;90.60;;;33.50;;
41705;SDS011;27385;51.096;17.190;2022-11-24T09:58:11;93.40;;;34.20;;
41705;SDS011;27385;51.096;17.190;2022-11-24T10:00:47;98.80;;;38.10;;
41705;SDS011;27385;51.096;17.190;2022-11-24T10:03:23;101.80;;;37.70;;
41705;SDS011;27385;51.096;17.190;2022-11-24T10:05:58;99.60;;;36.80;;
41705;SDS011;27385;51.096;17.190;2022-11-24T10:11:33;91.60;;;35.10;;
41705;SDS011;27385;51.096;17.190;2022-11-24T10:14:17;99.10;;;38.20;;
41705;SDS011;27385;51.096;17.190;2022-11-24T10:17:01;91.70;;;35.00;;
41705;SDS011;27385;51.096;17.190;2022-11-24T10:19:47;94.90;;;38.20;;
41705;SDS011;27385;51.096;17.190;2022-11-24T10:22:29;110.40;;;42.00;;
41705;SDS011;27385;51.096;17.190;2022-11-24T10:25:14;95.60;;;37.90;;
41705;SDS011;27385;51.096;17.190;2022-11-24T10:30:23;93.10;;;38.90;;
41705;SDS011;27385;51.096;17.190;2022-11-24T10:32:57;99.50;;;39.10;;
41705;SDS011;27385;51.096;17.190;2022-11-24T10:35:35;92.80;;;38.00;;
41705;SDS011;27385;51.096;17.190;2022-11-24T10:38:15;96.80;;;39.20;;
41705;SDS011;27385;51.096;17.190;2022-11-24T10:41:00;87.40;;;35.70;;
41705;SDS011;27385;51.096;17.190;2022-11-24T10:43:36;99.80;;;42.40;;
41705;SDS011;27385;51.096;17.190;2022-11-24T10:46:10;103.70;;;41.80;;
41705;SDS011;27385;51.096;17.190;2022-11-24T10:48:44;103.50;;;42.40;;
41705;SDS011;27385;51.096;17.190;2022-11-24T10:51:30;106.40;;;43.30;;
41705;SDS011;27385;51.096;17.190;2022-11-24T10:54:11;107.10;;;45.00;;
41705;SDS011;27385;51.096;17.190;2022-11-24T10:56:47;98.50;;;41.20;;
41705;SDS011;27385;51.096;17.190;2022-11-24T10:59:30;95.40;;;39.50;;
41705;SDS011;27385;51.096;17.190;2022-11-24T11:02:08;107.90;;;44.90;;
41705;SDS011;27385;51.096;17.190;2022-11-24T11:04:58;98.70;;;41.60;;
41705;SDS011;27385;51.096;17.190;2022-11-24T11:08:13;103.90;;;43.20;;
41705;SDS011;27385;51.096;17.190;2022-11-24T11:10:48;101.70;;;42.80;;
41705;SDS011;27385;51.096;17.190;2022-11-24T11:13:42;107.30;;;46.60;;
41705;SDS011;27385;51.096;17.190;2022-11-24T11:16:28;101.00;;;43.70;;
41705;SDS011;27385;51.096;17.190;2022-11-24T11:19:04;97.00;;;41.70;;
41705;SDS011;27385;51.096;17.190;2022-11-24T11:24:29;100.70;;;45.20;;
41705;SDS011;27385;51.096;17.190;2022-11-24T11:27:02;117.20;;;49.80;;
41705;SDS011;27385;51.096;17.190;2022-11-24T11:29:45;113.90;;;48.80;;
41705;SDS011;27385;51.096;17.190;2022-11-24T11:32:18;96.80;;;44.30;;
41705;SDS011;27385;51.096;17.190;2022-11-24T11:34:51;99.90;;;42.10;;
41705;SDS011;27385;51.096;17.190;2022-11-24T11:37:25;104.00;;;46.30;;
41705;SDS011;27385;51.096;17.190;2022-11-24T11:39:59;104.20;;;45.50;;
41705;SDS011;27385;51.096;17.190;2022-11-24T11:42:32;96.70;;;41.80;;
41705;SDS011;27385;51.096;17.190;2022-11-24T11:45:12;98.90;;;40.40;;
41705;SDS011;27385;51.096;17.190;2022-11-24T11:47:47;98.70;;;42.20;;
41705;SDS011;27385;51.096;17.190;2022-11-24T11:50:25;97.40;;;41.80;;
41705;SDS011;27385;51.096;17.190;2022-11-24T11:53:10;95.40;;;42.20;;
41705;SDS011;27385;51.096;17.190;2022-11-24T11:55:55;88.00;;;41.50;;
41705;SDS011;27385;51.096;17.190;2022-11-24T11:58:57;103.70;;;43.60;;
41705;SDS011;27385;51.096;17.190;2022-11-24T12:01:44;90.10;;;38.90;;
41705;SDS011;27385;51.096;17.190;2022-11-24T12:04:37;87.20;;;38.80;;
41705;SDS011;27385;51.096;17.190;2022-11-24T12:07:22;92.90;;;41.60;;
41705;SDS011;27385;51.096;17.190;2022-11-24T12:10:09;95.10;;;42.70;;
41705;SDS011;27385;51.096;17.190;2022-11-24T12:13:12;94.90;;;42.40;;
41705;SDS011;27385;51.096;17.190;2022-11-24T12:16:02;98.50;;;43.60;;
41705;SDS011;27385;51.096;17.190;2022-11-24T12:18:45;108.10;;;44.80;;
41705;SDS011;27385;51.096;17.190;2022-11-24T12:21:31;100.80;;;42.40;;
41705;SDS011;27385;51.096;17.190;2022-11-24T12:24:10;96.00;;;41.40;;
41705;SDS011;27385;51.096;17.190;2022-11-24T12:26:48;89.90;;;40.30;;
41705;SDS011;27385;51.096;17.190;2022-11-24T12:29:28;94.70;;;40.90;;
41705;SDS011;27385;51.096;17.190;2022-11-24T12:32:17;89.40;;;41.40;;
41705;SDS011;27385;51.096;17.190;2022-11-24T12:35:01;98.80;;;45.20;;
41705;SDS011;27385;51.096;17.190;2022-11-24T12:37:50;95.90;;;43.10;;
41705;SDS011;27385;51.096;17.190;2022-11-24T12:40:34;91.20;;;40.20;;
41705;SDS011;27385;51.096;17.190;2022-11-24T12:43:12;89.90;;;38.80;;
41705;SDS011;27385;51.096;17.190;2022-11-24T12:45:55;88.50;;;39.20;;
41705;SDS011;27385;51.096;17.190;2022-11-24T12:48:32;90.00;;;39.80;;
41705;SDS011;27385;51.096;17.190;2022-11-24T12:51:12;94.60;;;40.90;;
41705;SDS011;27385;51.096;17.190;2022-11-24T12:53:47;91.20;;;39.40;;
41705;SDS011;27385;51.096;17.190;2022-11-24T12:56:24;88.80;;;36.80;;
41705;SDS011;27385;51.096;17.190;2022-11-24T12:59:10;82.00;;;38.00;;
41705;SDS011;27385;51.096;17.190;2022-11-24T13:01:51;97.50;;;41.40;;
41705;SDS011;27385;51.096;17.190;2022-11-24T13:04:33;90.40;;;40.30;;
41705;SDS011;27385;51.096;17.190;2022-11-24T13:07:13;93.60;;;41.10;;
41705;SDS011;27385;51.096;17.190;2022-11-24T13:12:55;94.40;;;42.40;;
41705;SDS011;27385;51.096;17.190;2022-11-24T13:15:29;87.60;;;39.90;;
41705;SDS011;27385;51.096;17.190;2022-11-24T13:18:02;95.70;;;43.10;;
41705;SDS011;27385;51.096;17.190;2022-11-24T13:20:54;96.40;;;41.00;;
41705;SDS011;27385;51.096;17.190;2022-11-24T13:23:26;85.70;;;39.40;;
41705;SDS011;27385;51.096;17.190;2022-11-24T13:28:58;98.40;;;40.60;;
41705;SDS011;27385;51.096;17.190;2022-11-24T13:31:31;88.40;;;39.50;;
41705;SDS011;27385;51.096;17.190;2022-11-24T13:34:16;98.50;;;42.50;;
41705;SDS011;27385;51.096;17.190;2022-11-24T13:37:47;94.30;;;40.40;;
41705;SDS011;27385;51.096;17.190;2022-11-24T13:40:41;93.30;;;40.40;;
41705;SDS011;27385;51.096;17.190;2022-11-24T13:43:20;100.30;;;42.70;;
41705;SDS011;27385;51.096;17.190;2022-11-24T13:45:52;92.60;;;40.50;;
41705;SDS011;27385;51.096;17.190;2022-11-24T13:51:29;124.10;;;63.70;;
41705;SDS011;27385;51.096;17.190;2022-11-24T13:54:00;113.30;;;56.50;;
41705;SDS011;27385;51.096;17.190;2022-11-24T13:56:33;98.80;;;46.10;;
41705;SDS011;27385;51.096;17.190;2022-11-24T13:59:15;147.20;;;66.30;;
41705;SDS011;27385;51.096;17.190;2022-11-24T14:01:56;145.50;;;66.40;;
41705;SDS011;27385;51.096;17.190;2022-11-24T14:04:48;138.80;;;62.00;;
41705;SDS011;27385;51.096;17.190;2022-11-24T14:07:19;372.90;;;173.30;;
41705;SDS011;27385;51.096;17.190;2022-11-24T14:09:50;428.40;;;210.70;;
41705;SDS011;27385;51.096;17.190;2022-11-24T14:12:24;384.40;;;167.00;;
41705;SDS011;27385;51.096;17.190;2022-11-24T14:15:18;399.50;;;165.90;;
41705;SDS011;27385;51.096;17.190;2022-11-24T14:17:52;341.20;;;136.00;;
41705;SDS011;27385;51.096;17.190;2022-11-24T14:20:24;228.60;;;99.20;;
41705;SDS011;27385;51.096;17.190;2022-11-24T14:22:57;162.80;;;72.80;;
41705;SDS011;27385;51.096;17.190;2022-11-24T14:25:29;136.50;;;58.60;;
41705;SDS011;27385;51.096;17.190;2022-11-24T14:28:02;131.00;;;55.00;;
41705;SDS011;27385;51.096;17.190;2022-11-24T14:30:48;119.00;;;57.40;;
41705;SDS011;27385;51.096;17.190;2022-11-24T14:33:22;130.30;;;59.30;;
41705;SDS011;27385;51.096;17.190;2022-11-24T14:35:54;122.50;;;53.20;;
41705;SDS011;27385;51.096;17.190;2022-11-24T14:38:26;133.60;;;62.10;;
41705;SDS011;27385;51.096;17.190;2022-11-24T14:41:11;125.90;;;60.10;;
41705;SDS011;27385;51.096;17.190;2022-11-24T14:44:01;154.40;;;71.60;;
41705;SDS011;27385;51.096;17.190;2022-11-24T14:46:36;152.40;;;71.40;;
41705;SDS011;27385;51.096;17.190;2022-11-24T14:49:07;147.40;;;71.50;;
41705;SDS011;27385;51.096;17.190;2022-11-24T14:51:47;145.50;;;72.50;;
41705;SDS011;27385;51.096;17.190;2022-11-24T14:54:25;138.20;;;69.80;;
41705;SDS011;27385;51.096;17.190;2022-11-24T14:56:58;134.40;;;63.50;;
41705;SDS011;27385;51.096;17.190;2022-11-24T14:59:33;121.90;;;59.50;;
41705;SDS011;27385;51.096;17.190;2022-11-24T15:02:13;115.00;;;54.70;;
41705;SDS011;27385;51.096;17.190;2022-11-24T15:05:17;114.10;;;51.10;;
41705;SDS011;27385;51.096;17.190;2022-11-24T15:07:51;115.60;;;51.00;;
41705;SDS011;27385;51.096;17.190;2022-11-24T15:10:32;111.90;;;52.50;;